Akbas, Turkey

10:47 AM +03 on December 09, 2016 (GMT +0300)
Suleyman Demirel | | Change Station

Elev 2835 ft 37.86 °N, 30.37 °E | Updated 27 minutes ago

Clear
Clear
28 °F
Feels Like 28 °F
N
0
Wind Variable Wind from North

Today
High -- | Low -- °F
--% Chance of Precip.
Yesterday
High -- | Low -- °F
Precip. -- in
Pressure 30.42 in
Visibility -9999.0 miles
Clouds
Dew Point 23 °F
Humidity 80%
Rainfall 0.00 in
Snow Depth Not available.
8:06 AM 5:43 PM
Waxing Gibbous, 71% visible
METAR LTFC 090720Z 00000KT CAVOK M02/M05 Q1030 RMK RWY23 VRB02KT
Pressure 30.42 in
Visibility -9999.0 miles
Clouds
Dew Point 23 °F
Humidity 80%
Rainfall 0.00 in
Snow Depth Not available.
8:06 AM 5:43 PM
Waxing Gibbous, 71% visible
METAR LTFC 090720Z 00000KT CAVOK M02/M05 Q1030 RMK RWY23 VRB02KT

10-Day Weather Forecast

×

Almanac

Astronomy

Dec. 09, 2016 Rise Set
Actual Time
Civil Twilight
Nautical Twilight
Astronomical Twilight
Moon
Length of Visible Light
Length of Day
Tomorrow will be .
, % of the Moon is Illuminated

Today's Extremes

Country Highs Country Lows

Community

WunderPhotos

Upload Photos

1,956,374 photos uploaded!

WunderBlog® & News

Nearby

Air Quality

  Air Quality AQ Index Pollutant
Not available.

Snow Depth

Station Depth Elevation

Earthquake Activity

City Distance Mag. Time & Date
Minimum magnitude displayed is 2.5.

Coastal Water Temperatures

Place Temperature

Stations

Nearby Weather Stations

Station Location Temp. Windchill Dew Point Humidity Wind Precip. Elev Updated Type